sensor_id;sensor_type;location;lat;lon;timestamp;P1;durP1;ratioP1;P2;durP2;ratioP2
43809;SDS011;29440;48.208;11.162;2022-07-15T00:02:03;5.07;;;1.67;;
43809;SDS011;29440;48.208;11.162;2022-07-15T00:04:30;2.53;;;1.73;;
43809;SDS011;29440;48.208;11.162;2022-07-15T00:06:56;4.22;;;1.65;;
43809;SDS011;29440;48.208;11.162;2022-07-15T00:09:22;2.45;;;1.33;;
43809;SDS011;29440;48.208;11.162;2022-07-15T00:12:08;4.93;;;1.60;;
43809;SDS011;29440;48.208;11.162;2022-07-15T00:14:34;4.18;;;1.42;;
43809;SDS011;29440;48.208;11.162;2022-07-15T00:17:00;6.43;;;1.73;;
43809;SDS011;29440;48.208;11.162;2022-07-15T00:19:26;4.13;;;1.70;;
43809;SDS011;29440;48.208;11.162;2022-07-15T00:21:52;2.38;;;1.50;;
43809;SDS011;29440;48.208;11.162;2022-07-15T00:24:18;7.07;;;1.83;;
43809;SDS011;29440;48.208;11.162;2022-07-15T00:26:44;4.63;;;1.80;;
43809;SDS011;29440;48.208;11.162;2022-07-15T00:29:10;4.30;;;1.60;;
43809;SDS011;29440;48.208;11.162;2022-07-15T00:31:35;3.13;;;1.65;;
43809;SDS011;29440;48.208;11.162;2022-07-15T00:34:01;5.45;;;1.80;;
43809;SDS011;29440;48.208;11.162;2022-07-15T00:36:27;3.05;;;1.58;;
43809;SDS011;29440;48.208;11.162;2022-07-15T00:38:53;6.75;;;1.58;;
43809;SDS011;29440;48.208;11.162;2022-07-15T00:41:19;4.18;;;1.90;;
43809;SDS011;29440;48.208;11.162;2022-07-15T00:43:45;4.97;;;1.92;;
43809;SDS011;29440;48.208;11.162;2022-07-15T00:46:15;6.50;;;2.08;;
43809;SDS011;29440;48.208;11.162;2022-07-15T00:48:42;2.95;;;1.90;;
43809;SDS011;29440;48.208;11.162;2022-07-15T00:51:08;4.50;;;2.05;;
43809;SDS011;29440;48.208;11.162;2022-07-15T00:53:34;3.88;;;1.80;;
43809;SDS011;29440;48.208;11.162;2022-07-15T00:56:03;2.42;;;1.63;;
43809;SDS011;29440;48.208;11.162;2022-07-15T00:58:32;2.92;;;1.83;;
43809;SDS011;29440;48.208;11.162;2022-07-15T01:01:01;3.53;;;1.80;;
43809;SDS011;29440;48.208;11.162;2022-07-15T01:03:28;3.97;;;2.05;;
43809;SDS011;29440;48.208;11.162;2022-07-15T01:05:57;6.57;;;2.40;;
43809;SDS011;29440;48.208;11.162;2022-07-15T01:08:23;4.97;;;1.88;;
43809;SDS011;29440;48.208;11.162;2022-07-15T01:10:49;4.68;;;2.38;;
43809;SDS011;29440;48.208;11.162;2022-07-15T01:13:19;3.97;;;1.92;;
43809;SDS011;29440;48.208;11.162;2022-07-15T01:15:46;4.68;;;1.88;;
43809;SDS011;29440;48.208;11.162;2022-07-15T01:18:13;4.97;;;1.98;;
43809;SDS011;29440;48.208;11.162;2022-07-15T01:20:39;3.80;;;2.50;;
43809;SDS011;29440;48.208;11.162;2022-07-15T01:23:08;4.47;;;2.05;;
43809;SDS011;29440;48.208;11.162;2022-07-15T01:25:34;4.13;;;1.80;;
43809;SDS011;29440;48.208;11.162;2022-07-15T01:28:00;5.63;;;1.90;;
43809;SDS011;29440;48.208;11.162;2022-07-15T01:30:26;4.15;;;2.00;;
43809;SDS011;29440;48.208;11.162;2022-07-15T01:32:51;3.28;;;1.80;;
43809;SDS011;29440;48.208;11.162;2022-07-15T01:35:17;4.28;;;2.05;;
43809;SDS011;29440;48.208;11.162;2022-07-15T01:37:43;3.88;;;2.05;;
43809;SDS011;29440;48.208;11.162;2022-07-15T01:40:09;5.68;;;2.13;;
43809;SDS011;29440;48.208;11.162;2022-07-15T01:42:36;4.32;;;1.90;;
43809;SDS011;29440;48.208;11.162;2022-07-15T01:45:03;5.07;;;2.30;;
43809;SDS011;29440;48.208;11.162;2022-07-15T01:47:29;3.25;;;1.70;;
43809;SDS011;29440;48.208;11.162;2022-07-15T01:49:56;4.68;;;2.70;;
43809;SDS011;29440;48.208;11.162;2022-07-15T01:52:22;6.75;;;1.98;;
43809;SDS011;29440;48.208;11.162;2022-07-15T01:54:48;4.70;;;1.90;;
43809;SDS011;29440;48.208;11.162;2022-07-15T01:57:14;5.32;;;1.77;;
43809;SDS011;29440;48.208;11.162;2022-07-15T01:59:39;6.25;;;2.33;;
43809;SDS011;29440;48.208;11.162;2022-07-15T02:02:05;5.50;;;2.63;;
43809;SDS011;29440;48.208;11.162;2022-07-15T02:04:30;4.20;;;1.77;;
43809;SDS011;29440;48.208;11.162;2022-07-15T02:06:56;4.72;;;1.70;;
43809;SDS011;29440;48.208;11.162;2022-07-15T02:09:21;2.67;;;1.70;;
43809;SDS011;29440;48.208;11.162;2022-07-15T02:11:47;4.13;;;1.60;;
43809;SDS011;29440;48.208;11.162;2022-07-15T02:14:13;7.70;;;2.10;;
43809;SDS011;29440;48.208;11.162;2022-07-15T02:16:38;5.38;;;1.88;;
43809;SDS011;29440;48.208;11.162;2022-07-15T02:19:04;2.65;;;1.40;;
43809;SDS011;29440;48.208;11.162;2022-07-15T02:21:30;5.45;;;1.80;;
43809;SDS011;29440;48.208;11.162;2022-07-15T02:23:56;5.15;;;2.15;;
43809;SDS011;29440;48.208;11.162;2022-07-15T02:26:24;6.25;;;2.08;;
43809;SDS011;29440;48.208;11.162;2022-07-15T02:28:50;7.80;;;1.88;;
43809;SDS011;29440;48.208;11.162;2022-07-15T02:31:15;5.72;;;1.90;;
43809;SDS011;29440;48.208;11.162;2022-07-15T02:33:41;7.88;;;1.73;;
43809;SDS011;29440;48.208;11.162;2022-07-15T02:36:07;4.15;;;1.92;;
43809;SDS011;29440;48.208;11.162;2022-07-15T02:38:51;5.90;;;1.92;;
43809;SDS011;29440;48.208;11.162;2022-07-15T02:41:17;3.40;;;1.70;;
43809;SDS011;29440;48.208;11.162;2022-07-15T02:43:42;4.28;;;1.67;;
43809;SDS011;29440;48.208;11.162;2022-07-15T02:46:08;4.20;;;1.65;;
43809;SDS011;29440;48.208;11.162;2022-07-15T02:48:34;4.93;;;1.52;;
43809;SDS011;29440;48.208;11.162;2022-07-15T02:51:01;4.88;;;1.83;;
43809;SDS011;29440;48.208;11.162;2022-07-15T02:53:26;5.53;;;2.25;;
43809;SDS011;29440;48.208;11.162;2022-07-15T02:55:54;3.05;;;1.85;;
43809;SDS011;29440;48.208;11.162;2022-07-15T02:58:21;3.75;;;1.98;;
43809;SDS011;29440;48.208;11.162;2022-07-15T03:00:47;6.03;;;2.17;;
43809;SDS011;29440;48.208;11.162;2022-07-15T03:03:13;4.25;;;2.10;;
43809;SDS011;29440;48.208;11.162;2022-07-15T03:05:38;3.63;;;1.85;;
43809;SDS011;29440;48.208;11.162;2022-07-15T03:08:04;7.35;;;1.50;;
43809;SDS011;29440;48.208;11.162;2022-07-15T03:10:30;5.40;;;1.88;;
43809;SDS011;29440;48.208;11.162;2022-07-15T03:12:55;3.13;;;1.52;;
43809;SDS011;29440;48.208;11.162;2022-07-15T03:15:21;8.45;;;1.83;;
43809;SDS011;29440;48.208;11.162;2022-07-15T03:17:46;3.83;;;1.70;;
43809;SDS011;29440;48.208;11.162;2022-07-15T03:20:12;5.03;;;1.58;;
43809;SDS011;29440;48.208;11.162;2022-07-15T03:22:37;4.40;;;1.88;;
43809;SDS011;29440;48.208;11.162;2022-07-15T03:25:03;3.50;;;1.85;;
43809;SDS011;29440;48.208;11.162;2022-07-15T03:27:29;6.32;;;1.90;;
43809;SDS011;29440;48.208;11.162;2022-07-15T03:29:55;6.15;;;2.20;;
43809;SDS011;29440;48.208;11.162;2022-07-15T03:32:20;5.13;;;1.58;;
43809;SDS011;29440;48.208;11.162;2022-07-15T03:34:47;5.28;;;1.40;;
43809;SDS011;29440;48.208;11.162;2022-07-15T03:37:13;7.00;;;1.42;;
43809;SDS011;29440;48.208;11.162;2022-07-15T03:39:39;4.22;;;1.20;;
43809;SDS011;29440;48.208;11.162;2022-07-15T03:42:05;3.65;;;1.33;;
43809;SDS011;29440;48.208;11.162;2022-07-15T03:44:30;3.05;;;1.40;;
43809;SDS011;29440;48.208;11.162;2022-07-15T03:46:56;3.28;;;1.42;;
43809;SDS011;29440;48.208;11.162;2022-07-15T03:49:21;4.00;;;1.40;;
43809;SDS011;29440;48.208;11.162;2022-07-15T03:51:47;3.50;;;1.00;;
43809;SDS011;29440;48.208;11.162;2022-07-15T03:54:13;3.78;;;1.25;;
43809;SDS011;29440;48.208;11.162;2022-07-15T03:56:38;4.03;;;1.20;;
43809;SDS011;29440;48.208;11.162;2022-07-15T03:59:04;6.10;;;1.45;;
43809;SDS011;29440;48.208;11.162;2022-07-15T04:01:32;5.00;;;1.90;;
43809;SDS011;29440;48.208;11.162;2022-07-15T04:03:58;5.25;;;1.48;;
43809;SDS011;29440;48.208;11.162;2022-07-15T04:06:24;3.42;;;1.52;;
43809;SDS011;29440;48.208;11.162;2022-07-15T04:08:50;5.50;;;1.20;;
43809;SDS011;29440;48.208;11.162;2022-07-15T04:11:16;11.48;;;1.40;;
43809;SDS011;29440;48.208;11.162;2022-07-15T04:13:43;6.70;;;1.45;;
43809;SDS011;29440;48.208;11.162;2022-07-15T04:16:09;4.95;;;1.63;;
43809;SDS011;29440;48.208;11.162;2022-07-15T04:18:37;5.10;;;1.20;;
43809;SDS011;29440;48.208;11.162;2022-07-15T04:21:02;6.45;;;1.33;;
43809;SDS011;29440;48.208;11.162;2022-07-15T04:23:28;4.80;;;1.40;;
43809;SDS011;29440;48.208;11.162;2022-07-15T04:25:54;7.30;;;1.50;;
43809;SDS011;29440;48.208;11.162;2022-07-15T04:28:20;5.03;;;1.15;;
43809;SDS011;29440;48.208;11.162;2022-07-15T04:30:48;4.63;;;1.15;;
43809;SDS011;29440;48.208;11.162;2022-07-15T04:33:14;5.07;;;1.25;;
43809;SDS011;29440;48.208;11.162;2022-07-15T04:35:40;2.80;;;1.27;;
43809;SDS011;29440;48.208;11.162;2022-07-15T04:38:07;2.65;;;1.17;;
43809;SDS011;29440;48.208;11.162;2022-07-15T04:40:33;2.60;;;1.13;;
43809;SDS011;29440;48.208;11.162;2022-07-15T04:42:59;3.40;;;1.33;;
43809;SDS011;29440;48.208;11.162;2022-07-15T04:45:25;7.22;;;1.08;;
43809;SDS011;29440;48.208;11.162;2022-07-15T04:47:52;2.35;;;1.02;;
43809;SDS011;29440;48.208;11.162;2022-07-15T04:50:18;3.35;;;1.10;;
43809;SDS011;29440;48.208;11.162;2022-07-15T04:53:22;4.63;;;1.10;;
43809;SDS011;29440;48.208;11.162;2022-07-15T04:55:48;3.85;;;1.15;;
43809;SDS011;29440;48.208;11.162;2022-07-15T04:58:14;5.22;;;1.20;;
43809;SDS011;29440;48.208;11.162;2022-07-15T05:00:45;1.45;;;0.88;;
43809;SDS011;29440;48.208;11.162;2022-07-15T05:03:11;3.53;;;1.05;;
43809;SDS011;29440;48.208;11.162;2022-07-15T05:05:37;4.35;;;1.23;;
43809;SDS011;29440;48.208;11.162;2022-07-15T05:08:03;4.95;;;1.02;;
43809;SDS011;29440;48.208;11.162;2022-07-15T05:10:29;5.90;;;1.00;;
43809;SDS011;29440;48.208;11.162;2022-07-15T05:12:55;5.35;;;1.00;;
43809;SDS011;29440;48.208;11.162;2022-07-15T05:15:20;6.93;;;1.13;;
43809;SDS011;29440;48.208;11.162;2022-07-15T05:17:46;2.78;;;0.98;;
43809;SDS011;29440;48.208;11.162;2022-07-15T05:20:19;7.20;;;1.25;;
43809;SDS011;29440;48.208;11.162;2022-07-15T05:22:44;7.07;;;1.90;;
43809;SDS011;29440;48.208;11.162;2022-07-15T05:25:11;2.85;;;1.20;;
43809;SDS011;29440;48.208;11.162;2022-07-15T05:27:37;7.05;;;1.23;;
43809;SDS011;29440;48.208;11.162;2022-07-15T05:30:02;5.97;;;1.30;;
43809;SDS011;29440;48.208;11.162;2022-07-15T05:32:28;4.57;;;1.20;;
43809;SDS011;29440;48.208;11.162;2022-07-15T05:34:54;7.78;;;1.55;;
43809;SDS011;29440;48.208;11.162;2022-07-15T05:37:20;4.47;;;1.13;;
43809;SDS011;29440;48.208;11.162;2022-07-15T05:39:46;5.18;;;1.15;;
43809;SDS011;29440;48.208;11.162;2022-07-15T05:42:21;1.35;;;0.90;;
43809;SDS011;29440;48.208;11.162;2022-07-15T05:44:48;3.45;;;1.00;;
43809;SDS011;29440;48.208;11.162;2022-07-15T05:47:14;5.20;;;1.17;;
43809;SDS011;29440;48.208;11.162;2022-07-15T05:49:40;2.88;;;0.88;;
43809;SDS011;29440;48.208;11.162;2022-07-15T05:52:06;3.08;;;1.02;;
43809;SDS011;29440;48.208;11.162;2022-07-15T05:54:39;4.28;;;0.90;;
43809;SDS011;29440;48.208;11.162;2022-07-15T05:57:05;2.63;;;1.10;;
43809;SDS011;29440;48.208;11.162;2022-07-15T05:59:30;4.55;;;1.00;;
43809;SDS011;29440;48.208;11.162;2022-07-15T06:01:56;5.05;;;1.15;;
43809;SDS011;29440;48.208;11.162;2022-07-15T06:04:23;3.13;;;0.90;;
43809;SDS011;29440;48.208;11.162;2022-07-15T06:06:51;1.73;;;0.80;;
43809;SDS011;29440;48.208;11.162;2022-07-15T06:09:20;4.65;;;0.93;;
43809;SDS011;29440;48.208;11.162;2022-07-15T06:11:46;5.82;;;0.90;;
43809;SDS011;29440;48.208;11.162;2022-07-15T06:14:12;4.53;;;0.93;;
43809;SDS011;29440;48.208;11.162;2022-07-15T06:16:40;7.60;;;1.35;;
43809;SDS011;29440;48.208;11.162;2022-07-15T06:19:05;10.68;;;1.30;;
43809;SDS011;29440;48.208;11.162;2022-07-15T06:21:33;8.68;;;1.45;;
43809;SDS011;29440;48.208;11.162;2022-07-15T06:24:00;5.88;;;1.10;;
43809;SDS011;29440;48.208;11.162;2022-07-15T06:26:26;2.33;;;0.80;;
43809;SDS011;29440;48.208;11.162;2022-07-15T06:28:51;4.05;;;0.65;;
43809;SDS011;29440;48.208;11.162;2022-07-15T06:31:17;6.60;;;0.70;;
43809;SDS011;29440;48.208;11.162;2022-07-15T06:33:42;3.00;;;0.68;;
43809;SDS011;29440;48.208;11.162;2022-07-15T06:36:08;3.40;;;0.90;;
43809;SDS011;29440;48.208;11.162;2022-07-15T06:38:33;4.72;;;0.70;;
43809;SDS011;29440;48.208;11.162;2022-07-15T06:40:59;3.53;;;0.70;;
43809;SDS011;29440;48.208;11.162;2022-07-15T06:43:24;3.75;;;0.88;;
43809;SDS011;29440;48.208;11.162;2022-07-15T06:45:50;5.07;;;0.70;;
43809;SDS011;29440;48.208;11.162;2022-07-15T06:48:16;3.17;;;0.82;;
43809;SDS011;29440;48.208;11.162;2022-07-15T06:50:42;1.50;;;0.60;;
43809;SDS011;29440;48.208;11.162;2022-07-15T06:53:08;2.97;;;0.57;;
43809;SDS011;29440;48.208;11.162;2022-07-15T06:55:34;5.32;;;0.60;;
43809;SDS011;29440;48.208;11.162;2022-07-15T06:57:59;5.95;;;0.80;;
43809;SDS011;29440;48.208;11.162;2022-07-15T07:00:25;3.45;;;0.85;;
43809;SDS011;29440;48.208;11.162;2022-07-15T07:02:50;3.90;;;0.60;;
43809;SDS011;29440;48.208;11.162;2022-07-15T07:05:16;2.38;;;0.70;;
43809;SDS011;29440;48.208;11.162;2022-07-15T07:07:42;3.53;;;0.50;;
43809;SDS011;29440;48.208;11.162;2022-07-15T07:10:08;2.85;;;0.52;;
43809;SDS011;29440;48.208;11.162;2022-07-15T07:12:34;5.15;;;0.85;;
43809;SDS011;29440;48.208;11.162;2022-07-15T07:15:00;3.45;;;0.85;;
43809;SDS011;29440;48.208;11.162;2022-07-15T07:17:27;5.07;;;0.60;;
43809;SDS011;29440;48.208;11.162;2022-07-15T07:19:54;3.75;;;0.55;;
43809;SDS011;29440;48.208;11.162;2022-07-15T07:22:20;2.75;;;0.60;;
43809;SDS011;29440;48.208;11.162;2022-07-15T07:24:46;4.70;;;0.65;;
43809;SDS011;29440;48.208;11.162;2022-07-15T07:27:12;7.72;;;0.80;;
43809;SDS011;29440;48.208;11.162;2022-07-15T07:29:39;3.05;;;0.68;;
43809;SDS011;29440;48.208;11.162;2022-07-15T07:32:04;3.05;;;0.65;;
43809;SDS011;29440;48.208;11.162;2022-07-15T07:34:30;4.68;;;0.80;;
43809;SDS011;29440;48.208;11.162;2022-07-15T07:36:56;2.50;;;0.70;;
43809;SDS011;29440;48.208;11.162;2022-07-15T07:39:21;5.75;;;0.85;;
43809;SDS011;29440;48.208;11.162;2022-07-15T07:41:47;5.88;;;0.93;;
43809;SDS011;29440;48.208;11.162;2022-07-15T07:44:14;3.03;;;0.50;;
43809;SDS011;29440;48.208;11.162;2022-07-15T07:46:40;4.22;;;0.70;;
43809;SDS011;29440;48.208;11.162;2022-07-15T07:49:05;3.22;;;0.80;;
43809;SDS011;29440;48.208;11.162;2022-07-15T07:51:31;5.55;;;0.63;;
43809;SDS011;29440;48.208;11.162;2022-07-15T07:53:57;4.90;;;0.70;;
43809;SDS011;29440;48.208;11.162;2022-07-15T07:56:23;4.30;;;0.80;;
43809;SDS011;29440;48.208;11.162;2022-07-15T07:58:48;2.20;;;0.63;;
43809;SDS011;29440;48.208;11.162;2022-07-15T08:01:14;5.57;;;0.90;;
43809;SDS011;29440;48.208;11.162;2022-07-15T08:03:39;3.00;;;1.05;;
43809;SDS011;29440;48.208;11.162;2022-07-15T08:09:04;5.18;;;0.80;;
43809;SDS011;29440;48.208;11.162;2022-07-15T08:11:30;2.28;;;0.80;;
43809;SDS011;29440;48.208;11.162;2022-07-15T08:13:55;7.13;;;1.00;;
43809;SDS011;29440;48.208;11.162;2022-07-15T08:16:21;3.30;;;0.90;;
43809;SDS011;29440;48.208;11.162;2022-07-15T08:18:47;2.58;;;0.95;;
43809;SDS011;29440;48.208;11.162;2022-07-15T08:21:13;2.80;;;0.60;;
43809;SDS011;29440;48.208;11.162;2022-07-15T08:23:40;2.80;;;0.77;;
43809;SDS011;29440;48.208;11.162;2022-07-15T08:26:06;3.03;;;1.00;;
43809;SDS011;29440;48.208;11.162;2022-07-15T08:28:32;4.03;;;0.93;;
43809;SDS011;29440;48.208;11.162;2022-07-15T08:30:58;3.80;;;0.90;;
43809;SDS011;29440;48.208;11.162;2022-07-15T08:33:24;2.53;;;0.88;;
43809;SDS011;29440;48.208;11.162;2022-07-15T08:35:49;5.55;;;0.82;;
43809;SDS011;29440;48.208;11.162;2022-07-15T08:38:15;3.55;;;0.70;;
43809;SDS011;29440;48.208;11.162;2022-07-15T08:40:40;4.28;;;1.20;;
43809;SDS011;29440;48.208;11.162;2022-07-15T08:43:08;2.65;;;0.77;;
43809;SDS011;29440;48.208;11.162;2022-07-15T08:45:35;4.10;;;1.00;;
43809;SDS011;29440;48.208;11.162;2022-07-15T08:48:03;5.47;;;1.10;;
43809;SDS011;29440;48.208;11.162;2022-07-15T08:50:32;3.67;;;0.73;;
43809;SDS011;29440;48.208;11.162;2022-07-15T08:52:59;2.85;;;0.85;;
43809;SDS011;29440;48.208;11.162;2022-07-15T08:55:25;3.60;;;0.85;;
43809;SDS011;29440;48.208;11.162;2022-07-15T08:57:51;4.78;;;1.10;;
43809;SDS011;29440;48.208;11.162;2022-07-15T09:00:18;5.22;;;1.10;;
43809;SDS011;29440;48.208;11.162;2022-07-15T09:02:45;3.08;;;0.90;;
43809;SDS011;29440;48.208;11.162;2022-07-15T09:07:50;5.68;;;1.27;;
43809;SDS011;29440;48.208;11.162;2022-07-15T09:10:25;3.53;;;0.90;;
43809;SDS011;29440;48.208;11.162;2022-07-15T09:13:07;4.05;;;1.08;;
43809;SDS011;29440;48.208;11.162;2022-07-15T09:15:38;6.75;;;1.20;;
43809;SDS011;29440;48.208;11.162;2022-07-15T09:18:09;5.18;;;0.77;;
43809;SDS011;29440;48.208;11.162;2022-07-15T09:20:40;2.72;;;0.98;;
43809;SDS011;29440;48.208;11.162;2022-07-15T09:23:07;2.83;;;1.10;;
43809;SDS011;29440;48.208;11.162;2022-07-15T09:25:35;5.60;;;1.00;;
43809;SDS011;29440;48.208;11.162;2022-07-15T09:28:05;1.95;;;0.80;;
43809;SDS011;29440;48.208;11.162;2022-07-15T09:30:36;3.70;;;0.98;;
43809;SDS011;29440;48.208;11.162;2022-07-15T09:33:23;4.55;;;1.35;;
43809;SDS011;29440;48.208;11.162;2022-07-15T09:38:38;8.30;;;1.20;;
43809;SDS011;29440;48.208;11.162;2022-07-15T09:41:29;3.08;;;1.20;;
43809;SDS011;29440;48.208;11.162;2022-07-15T09:51:48;3.20;;;0.85;;
43809;SDS011;29440;48.208;11.162;2022-07-15T09:54:18;5.93;;;1.10;;
43809;SDS011;29440;48.208;11.162;2022-07-15T09:56:44;2.53;;;0.80;;
43809;SDS011;29440;48.208;11.162;2022-07-15T09:59:10;4.65;;;0.90;;
43809;SDS011;29440;48.208;11.162;2022-07-15T10:01:36;3.30;;;1.00;;
43809;SDS011;29440;48.208;11.162;2022-07-15T10:04:02;5.40;;;1.20;;
43809;SDS011;29440;48.208;11.162;2022-07-15T10:06:29;1.75;;;0.95;;
43809;SDS011;29440;48.208;11.162;2022-07-15T10:08:58;1.88;;;0.73;;
43809;SDS011;29440;48.208;11.162;2022-07-15T10:11:24;2.88;;;1.00;;
43809;SDS011;29440;48.208;11.162;2022-07-15T10:13:54;8.05;;;0.90;;
43809;SDS011;29440;48.208;11.162;2022-07-15T10:16:36;8.60;;;0.73;;
43809;SDS011;29440;48.208;11.162;2022-07-15T10:22:42;6.88;;;1.20;;
43809;SDS011;29440;48.208;11.162;2022-07-15T10:25:25;2.42;;;0.70;;
43809;SDS011;29440;48.208;11.162;2022-07-15T10:30:34;2.30;;;0.98;;
43809;SDS011;29440;48.208;11.162;2022-07-15T10:33:07;2.50;;;0.93;;
43809;SDS011;29440;48.208;11.162;2022-07-15T10:38:30;7.28;;;1.10;;
43809;SDS011;29440;48.208;11.162;2022-07-15T10:46:36;3.38;;;0.95;;
43809;SDS011;29440;48.208;11.162;2022-07-15T10:54:02;4.65;;;0.73;;
43809;SDS011;29440;48.208;11.162;2022-07-15T10:56:36;4.53;;;1.17;;
43809;SDS011;29440;48.208;11.162;2022-07-15T10:59:16;4.22;;;1.15;;
43809;SDS011;29440;48.208;11.162;2022-07-15T11:01:45;6.45;;;1.02;;
43809;SDS011;29440;48.208;11.162;2022-07-15T11:04:14;4.18;;;1.10;;
43809;SDS011;29440;48.208;11.162;2022-07-15T11:12:16;3.05;;;1.10;;
43809;SDS011;29440;48.208;11.162;2022-07-15T11:14:57;4.03;;;0.80;;
43809;SDS011;29440;48.208;11.162;2022-07-15T11:20:05;4.47;;;1.05;;
43809;SDS011;29440;48.208;11.162;2022-07-15T11:22:40;3.45;;;0.95;;
43809;SDS011;29440;48.208;11.162;2022-07-15T11:25:24;3.15;;;1.00;;
43809;SDS011;29440;48.208;11.162;2022-07-15T11:28:03;3.92;;;1.20;;
43809;SDS011;29440;48.208;11.162;2022-07-15T11:30:41;5.82;;;1.20;;
43809;SDS011;29440;48.208;11.162;2022-07-15T11:33:13;2.90;;;1.10;;
43809;SDS011;29440;48.208;11.162;2022-07-15T11:35:42;3.42;;;1.27;;
43809;SDS011;29440;48.208;11.162;2022-07-15T11:38:16;3.97;;;0.95;;
43809;SDS011;29440;48.208;11.162;2022-07-15T11:40:45;4.93;;;1.17;;
43809;SDS011;29440;48.208;11.162;2022-07-15T11:43:31;3.67;;;1.10;;
43809;SDS011;29440;48.208;11.162;2022-07-15T11:46:19;2.33;;;1.02;;
43809;SDS011;29440;48.208;11.162;2022-07-15T11:48:46;6.38;;;1.30;;
43809;SDS011;29440;48.208;11.162;2022-07-15T11:51:12;4.35;;;1.20;;
43809;SDS011;29440;48.208;11.162;2022-07-15T11:53:42;3.72;;;1.20;;
43809;SDS011;29440;48.208;11.162;2022-07-15T11:56:10;3.75;;;1.13;;
43809;SDS011;29440;48.208;11.162;2022-07-15T11:58:42;6.28;;;1.17;;
43809;SDS011;29440;48.208;11.162;2022-07-15T12:01:16;2.13;;;1.10;;
43809;SDS011;29440;48.208;11.162;2022-07-15T12:03:48;2.17;;;1.08;;
43809;SDS011;29440;48.208;11.162;2022-07-15T12:06:22;5.00;;;1.30;;
43809;SDS011;29440;48.208;11.162;2022-07-15T12:08:54;2.65;;;1.08;;
43809;SDS011;29440;48.208;11.162;2022-07-15T12:11:32;5.05;;;1.10;;
43809;SDS011;29440;48.208;11.162;2022-07-15T12:14:01;7.03;;;1.67;;
43809;SDS011;29440;48.208;11.162;2022-07-15T12:19:23;4.25;;;1.33;;
43809;SDS011;29440;48.208;11.162;2022-07-15T12:21:52;3.88;;;0.93;;
43809;SDS011;29440;48.208;11.162;2022-07-15T12:24:20;4.40;;;1.20;;
43809;SDS011;29440;48.208;11.162;2022-07-15T12:29:20;5.13;;;1.10;;
43809;SDS011;29440;48.208;11.162;2022-07-15T12:31:52;3.95;;;0.98;;
43809;SDS011;29440;48.208;11.162;2022-07-15T12:34:18;6.53;;;1.50;;
43809;SDS011;29440;48.208;11.162;2022-07-15T12:36:44;3.35;;;1.10;;
43809;SDS011;29440;48.208;11.162;2022-07-15T12:39:20;4.25;;;1.20;;
43809;SDS011;29440;48.208;11.162;2022-07-15T12:41:57;4.80;;;0.90;;
43809;SDS011;29440;48.208;11.162;2022-07-15T12:44:26;4.82;;;0.85;;
43809;SDS011;29440;48.208;11.162;2022-07-15T12:46:59;2.38;;;0.98;;
43809;SDS011;29440;48.208;11.162;2022-07-15T12:52:23;4.18;;;1.48;;
43809;SDS011;29440;48.208;11.162;2022-07-15T12:54:58;2.55;;;0.95;;
43809;SDS011;29440;48.208;11.162;2022-07-15T12:57:36;5.70;;;1.52;;
43809;SDS011;29440;48.208;11.162;2022-07-15T13:02:53;3.80;;;1.08;;
43809;SDS011;29440;48.208;11.162;2022-07-15T13:05:23;3.38;;;1.10;;
43809;SDS011;29440;48.208;11.162;2022-07-15T13:07:49;3.40;;;1.15;;
43809;SDS011;29440;48.208;11.162;2022-07-15T13:10:16;3.10;;;0.95;;
43809;SDS011;29440;48.208;11.162;2022-07-15T13:12:42;5.78;;;1.33;;
43809;SDS011;29440;48.208;11.162;2022-07-15T13:15:08;2.55;;;1.00;;
43809;SDS011;29440;48.208;11.162;2022-07-15T13:17:34;2.75;;;0.90;;
43809;SDS011;29440;48.208;11.162;2022-07-15T13:20:00;5.72;;;1.42;;
43809;SDS011;29440;48.208;11.162;2022-07-15T13:22:30;3.38;;;1.42;;
43809;SDS011;29440;48.208;11.162;2022-07-15T13:24:56;5.43;;;1.40;;
43809;SDS011;29440;48.208;11.162;2022-07-15T13:27:22;4.03;;;1.40;;
43809;SDS011;29440;48.208;11.162;2022-07-15T13:29:48;3.28;;;1.25;;
43809;SDS011;29440;48.208;11.162;2022-07-15T13:32:14;3.03;;;1.27;;
43809;SDS011;29440;48.208;11.162;2022-07-15T13:34:39;2.47;;;1.30;;
43809;SDS011;29440;48.208;11.162;2022-07-15T13:37:05;5.13;;;1.17;;
43809;SDS011;29440;48.208;11.162;2022-07-15T13:39:31;2.75;;;1.00;;
43809;SDS011;29440;48.208;11.162;2022-07-15T13:41:56;3.50;;;1.20;;
43809;SDS011;29440;48.208;11.162;2022-07-15T13:44:22;4.07;;;1.30;;
43809;SDS011;29440;48.208;11.162;2022-07-15T13:46:48;8.60;;;1.77;;
43809;SDS011;29440;48.208;11.162;2022-07-15T13:49:14;4.22;;;1.25;;
43809;SDS011;29440;48.208;11.162;2022-07-15T13:51:40;4.28;;;1.23;;
43809;SDS011;29440;48.208;11.162;2022-07-15T13:54:06;3.33;;;1.40;;
43809;SDS011;29440;48.208;11.162;2022-07-15T13:56:34;7.43;;;1.20;;
43809;SDS011;29440;48.208;11.162;2022-07-15T13:58:59;2.95;;;1.20;;
43809;SDS011;29440;48.208;11.162;2022-07-15T14:01:26;3.00;;;1.20;;
43809;SDS011;29440;48.208;11.162;2022-07-15T14:03:54;2.22;;;1.20;;
43809;SDS011;29440;48.208;11.162;2022-07-15T14:06:20;6.18;;;1.27;;
43809;SDS011;29440;48.208;11.162;2022-07-15T14:08:46;4.75;;;1.30;;
43809;SDS011;29440;48.208;11.162;2022-07-15T14:11:11;3.38;;;1.42;;
43809;SDS011;29440;48.208;11.162;2022-07-15T14:13:37;4.32;;;1.20;;
43809;SDS011;29440;48.208;11.162;2022-07-15T14:16:03;2.95;;;1.48;;
43809;SDS011;29440;48.208;11.162;2022-07-15T14:18:29;3.20;;;1.30;;
43809;SDS011;29440;48.208;11.162;2022-07-15T14:21:14;3.45;;;1.15;;
43809;SDS011;29440;48.208;11.162;2022-07-15T14:23:41;6.30;;;1.23;;
43809;SDS011;29440;48.208;11.162;2022-07-15T14:26:07;2.90;;;1.25;;
43809;SDS011;29440;48.208;11.162;2022-07-15T14:28:34;3.25;;;1.30;;
43809;SDS011;29440;48.208;11.162;2022-07-15T14:31:00;2.35;;;1.15;;
43809;SDS011;29440;48.208;11.162;2022-07-15T14:33:25;3.08;;;1.20;;
43809;SDS011;29440;48.208;11.162;2022-07-15T14:35:51;3.67;;;1.27;;
43809;SDS011;29440;48.208;11.162;2022-07-15T14:38:16;14.73;;;3.30;;
43809;SDS011;29440;48.208;11.162;2022-07-15T14:40:42;3.58;;;1.33;;
43809;SDS011;29440;48.208;11.162;2022-07-15T14:43:08;2.92;;;1.27;;
43809;SDS011;29440;48.208;11.162;2022-07-15T14:45:34;4.25;;;1.45;;
43809;SDS011;29440;48.208;11.162;2022-07-15T14:47:59;3.63;;;1.52;;
43809;SDS011;29440;48.208;11.162;2022-07-15T14:50:25;2.42;;;1.70;;
43809;SDS011;29440;48.208;11.162;2022-07-15T14:52:51;4.85;;;1.52;;
43809;SDS011;29440;48.208;11.162;2022-07-15T14:55:16;4.72;;;1.42;;
43809;SDS011;29440;48.208;11.162;2022-07-15T14:57:42;6.15;;;1.60;;
43809;SDS011;29440;48.208;11.162;2022-07-15T15:00:07;3.65;;;1.38;;
43809;SDS011;29440;48.208;11.162;2022-07-15T15:02:34;4.82;;;1.40;;
43809;SDS011;29440;48.208;11.162;2022-07-15T15:04:59;4.50;;;1.42;;
43809;SDS011;29440;48.208;11.162;2022-07-15T15:07:25;3.42;;;1.38;;
43809;SDS011;29440;48.208;11.162;2022-07-15T15:09:50;4.80;;;1.40;;
43809;SDS011;29440;48.208;11.162;2022-07-15T15:12:16;3.15;;;1.10;;
43809;SDS011;29440;48.208;11.162;2022-07-15T15:14:41;4.07;;;1.33;;
43809;SDS011;29440;48.208;11.162;2022-07-15T15:17:07;2.65;;;1.20;;
43809;SDS011;29440;48.208;11.162;2022-07-15T15:19:33;2.17;;;1.20;;
43809;SDS011;29440;48.208;11.162;2022-07-15T15:21:59;5.43;;;1.33;;
43809;SDS011;29440;48.208;11.162;2022-07-15T15:24:25;2.38;;;1.20;;
43809;SDS011;29440;48.208;11.162;2022-07-15T15:26:51;5.93;;;1.52;;
43809;SDS011;29440;48.208;11.162;2022-07-15T15:29:17;4.00;;;1.00;;
43809;SDS011;29440;48.208;11.162;2022-07-15T15:31:43;2.78;;;1.20;;